sensor_id;sensor_type;location;lat;lon;timestamp;P1;durP1;ratioP1;P2;durP2;ratioP2
5125;SDS011;63008;53.112;8.896;2022-09-02T00:01:45;0.80;;;0.70;;
5125;SDS011;63008;53.112;8.896;2022-09-02T00:03:47;4.57;;;0.80;;
5125;SDS011;63008;53.112;8.896;2022-09-02T00:05:47;1.20;;;0.70;;
5125;SDS011;63008;53.112;8.896;2022-09-02T00:07:48;0.97;;;0.60;;
5125;SDS011;63008;53.112;8.896;2022-09-02T00:09:49;1.73;;;0.80;;
5125;SDS011;63008;53.112;8.896;2022-09-02T00:11:50;1.60;;;0.60;;
5125;SDS011;63008;53.112;8.896;2022-09-02T00:13:52;0.80;;;0.80;;
5125;SDS011;63008;53.112;8.896;2022-09-02T00:15:54;2.63;;;0.63;;
5125;SDS011;63008;53.112;8.896;2022-09-02T00:17:55;2.60;;;0.90;;
5125;SDS011;63008;53.112;8.896;2022-09-02T00:19:56;0.80;;;0.80;;
5125;SDS011;63008;53.112;8.896;2022-09-02T00:21:57;3.83;;;0.70;;
5125;SDS011;63008;53.112;8.896;2022-09-02T00:24:00;0.80;;;0.80;;
5125;SDS011;63008;53.112;8.896;2022-09-02T00:26:02;2.10;;;0.73;;
5125;SDS011;63008;53.112;8.896;2022-09-02T00:28:03;0.93;;;0.93;;
5125;SDS011;63008;53.112;8.896;2022-09-02T00:30:04;3.23;;;0.80;;
5125;SDS011;63008;53.112;8.896;2022-09-02T00:32:06;0.90;;;0.90;;
5125;SDS011;63008;53.112;8.896;2022-09-02T00:34:07;0.80;;;0.70;;
5125;SDS011;63008;53.112;8.896;2022-09-02T00:36:10;0.80;;;0.70;;
5125;SDS011;63008;53.112;8.896;2022-09-02T00:38:12;6.57;;;1.00;;
5125;SDS011;63008;53.112;8.896;2022-09-02T00:40:13;2.50;;;0.80;;
5125;SDS011;63008;53.112;8.896;2022-09-02T00:42:14;0.70;;;0.70;;
5125;SDS011;63008;53.112;8.896;2022-09-02T00:44:16;0.80;;;0.80;;
5125;SDS011;63008;53.112;8.896;2022-09-02T00:46:19;0.87;;;0.87;;
5125;SDS011;63008;53.112;8.896;2022-09-02T00:48:21;1.03;;;0.90;;
5125;SDS011;63008;53.112;8.896;2022-09-02T00:50:22;0.97;;;0.90;;
5125;SDS011;63008;53.112;8.896;2022-09-02T00:52:28;2.10;;;1.10;;
5125;SDS011;63008;53.112;8.896;2022-09-02T00:54:33;0.90;;;0.60;;
5125;SDS011;63008;53.112;8.896;2022-09-02T00:56:37;0.80;;;0.80;;
5125;SDS011;63008;53.112;8.896;2022-09-02T00:58:41;1.23;;;1.13;;
5125;SDS011;63008;53.112;8.896;2022-09-02T01:00:43;0.70;;;0.70;;
5125;SDS011;63008;53.112;8.896;2022-09-02T01:02:47;0.93;;;0.90;;
5125;SDS011;63008;53.112;8.896;2022-09-02T01:04:50;4.40;;;1.30;;
5125;SDS011;63008;53.112;8.896;2022-09-02T01:06:54;2.00;;;1.00;;
5125;SDS011;63008;53.112;8.896;2022-09-02T01:08:57;0.80;;;0.80;;
5125;SDS011;63008;53.112;8.896;2022-09-02T01:11:04;1.23;;;1.00;;
5125;SDS011;63008;53.112;8.896;2022-09-02T01:13:07;1.30;;;1.10;;
5125;SDS011;63008;53.112;8.896;2022-09-02T01:15:10;0.97;;;0.97;;
5125;SDS011;63008;53.112;8.896;2022-09-02T01:17:15;2.80;;;1.10;;
5125;SDS011;63008;53.112;8.896;2022-09-02T01:19:26;1.00;;;0.80;;
5125;SDS011;63008;53.112;8.896;2022-09-02T01:21:31;1.30;;;1.20;;
5125;SDS011;63008;53.112;8.896;2022-09-02T01:23:31;2.93;;;0.90;;
5125;SDS011;63008;53.112;8.896;2022-09-02T01:25:34;3.13;;;0.90;;
5125;SDS011;63008;53.112;8.896;2022-09-02T01:27:35;1.60;;;0.90;;
5125;SDS011;63008;53.112;8.896;2022-09-02T01:29:36;4.70;;;0.90;;
5125;SDS011;63008;53.112;8.896;2022-09-02T01:31:37;2.50;;;1.00;;
5125;SDS011;63008;53.112;8.896;2022-09-02T01:33:37;1.03;;;1.03;;
5125;SDS011;63008;53.112;8.896;2022-09-02T01:35:38;2.83;;;1.00;;
5125;SDS011;63008;53.112;8.896;2022-09-02T01:37:39;1.93;;;0.93;;
5125;SDS011;63008;53.112;8.896;2022-09-02T01:39:39;1.00;;;1.00;;
5125;SDS011;63008;53.112;8.896;2022-09-02T01:41:40;1.43;;;1.10;;
5125;SDS011;63008;53.112;8.896;2022-09-02T01:43:41;1.20;;;1.10;;
5125;SDS011;63008;53.112;8.896;2022-09-02T01:45:42;3.60;;;1.30;;
5125;SDS011;63008;53.112;8.896;2022-09-02T01:47:45;6.33;;;1.03;;
5125;SDS011;63008;53.112;8.896;2022-09-02T01:49:46;0.83;;;0.83;;
5125;SDS011;63008;53.112;8.896;2022-09-02T01:51:47;3.90;;;0.77;;
5125;SDS011;63008;53.112;8.896;2022-09-02T01:53:49;4.10;;;0.93;;
5125;SDS011;63008;53.112;8.896;2022-09-02T01:55:49;1.23;;;1.13;;
5125;SDS011;63008;53.112;8.896;2022-09-02T01:57:51;0.80;;;0.80;;
5125;SDS011;63008;53.112;8.896;2022-09-02T01:59:51;1.30;;;1.30;;
5125;SDS011;63008;53.112;8.896;2022-09-02T02:01:53;4.43;;;1.00;;
5125;SDS011;63008;53.112;8.896;2022-09-02T02:03:53;1.17;;;1.07;;
5125;SDS011;63008;53.112;8.896;2022-09-02T02:05:54;1.13;;;1.03;;
5125;SDS011;63008;53.112;8.896;2022-09-02T02:07:55;4.40;;;1.00;;
5125;SDS011;63008;53.112;8.896;2022-09-02T02:09:55;5.03;;;1.20;;
5125;SDS011;63008;53.112;8.896;2022-09-02T02:11:56;1.10;;;1.00;;
5125;SDS011;63008;53.112;8.896;2022-09-02T02:13:56;2.13;;;1.03;;
5125;SDS011;63008;53.112;8.896;2022-09-02T02:15:57;1.00;;;0.90;;
5125;SDS011;63008;53.112;8.896;2022-09-02T02:17:58;1.43;;;1.00;;
5125;SDS011;63008;53.112;8.896;2022-09-02T02:19:58;1.43;;;1.00;;
5125;SDS011;63008;53.112;8.896;2022-09-02T02:21:59;2.40;;;0.90;;
5125;SDS011;63008;53.112;8.896;2022-09-02T02:24:00;2.57;;;1.20;;
5125;SDS011;63008;53.112;8.896;2022-09-02T02:26:01;1.00;;;0.90;;
5125;SDS011;63008;53.112;8.896;2022-09-02T02:28:02;1.47;;;1.37;;
5125;SDS011;63008;53.112;8.896;2022-09-02T02:30:05;1.27;;;0.90;;
5125;SDS011;63008;53.112;8.896;2022-09-02T02:32:08;1.37;;;1.10;;
5125;SDS011;63008;53.112;8.896;2022-09-02T02:34:09;5.07;;;1.40;;
5125;SDS011;63008;53.112;8.896;2022-09-02T02:36:10;1.87;;;1.07;;
5125;SDS011;63008;53.112;8.896;2022-09-02T02:38:10;4.30;;;1.00;;
5125;SDS011;63008;53.112;8.896;2022-09-02T02:40:11;2.03;;;1.20;;
5125;SDS011;63008;53.112;8.896;2022-09-02T02:42:12;2.70;;;0.90;;
5125;SDS011;63008;53.112;8.896;2022-09-02T02:44:13;1.27;;;1.07;;
5125;SDS011;63008;53.112;8.896;2022-09-02T02:46:14;1.10;;;1.00;;
5125;SDS011;63008;53.112;8.896;2022-09-02T02:48:15;1.33;;;1.10;;
5125;SDS011;63008;53.112;8.896;2022-09-02T02:50:16;0.67;;;0.67;;
5125;SDS011;63008;53.112;8.896;2022-09-02T02:52:19;0.97;;;0.93;;
5125;SDS011;63008;53.112;8.896;2022-09-02T02:54:20;6.40;;;1.23;;
5125;SDS011;63008;53.112;8.896;2022-09-02T02:56:21;3.13;;;1.10;;
5125;SDS011;63008;53.112;8.896;2022-09-02T02:58:21;1.20;;;1.10;;
5125;SDS011;63008;53.112;8.896;2022-09-02T03:00:23;3.43;;;1.10;;
5125;SDS011;63008;53.112;8.896;2022-09-02T03:02:26;2.10;;;1.60;;
5125;SDS011;63008;53.112;8.896;2022-09-02T03:04:33;1.60;;;1.50;;
5125;SDS011;63008;53.112;8.896;2022-09-02T03:06:34;5.50;;;2.07;;
5125;SDS011;63008;53.112;8.896;2022-09-02T03:08:34;3.40;;;1.27;;
5125;SDS011;63008;53.112;8.896;2022-09-02T03:10:37;2.10;;;1.20;;
5125;SDS011;63008;53.112;8.896;2022-09-02T03:12:41;1.10;;;1.00;;
5125;SDS011;63008;53.112;8.896;2022-09-02T03:14:49;0.97;;;0.97;;
5125;SDS011;63008;53.112;8.896;2022-09-02T03:16:51;1.97;;;1.30;;
5125;SDS011;63008;53.112;8.896;2022-09-02T03:18:52;0.90;;;0.90;;
5125;SDS011;63008;53.112;8.896;2022-09-02T03:20:53;1.00;;;1.00;;
5125;SDS011;63008;53.112;8.896;2022-09-02T03:22:55;1.37;;;1.20;;
5125;SDS011;63008;53.112;8.896;2022-09-02T03:24:56;2.20;;;1.17;;
5125;SDS011;63008;53.112;8.896;2022-09-02T03:26:57;3.33;;;1.57;;
5125;SDS011;63008;53.112;8.896;2022-09-02T03:28:57;2.47;;;1.20;;
5125;SDS011;63008;53.112;8.896;2022-09-02T03:30:58;2.40;;;1.53;;
5125;SDS011;63008;53.112;8.896;2022-09-02T03:32:59;1.20;;;1.10;;
5125;SDS011;63008;53.112;8.896;2022-09-02T03:35:02;1.70;;;1.30;;
5125;SDS011;63008;53.112;8.896;2022-09-02T03:37:04;2.30;;;0.97;;
5125;SDS011;63008;53.112;8.896;2022-09-02T03:39:08;0.97;;;0.97;;
5125;SDS011;63008;53.112;8.896;2022-09-02T03:41:09;3.70;;;1.77;;
5125;SDS011;63008;53.112;8.896;2022-09-02T03:43:09;3.70;;;1.47;;
5125;SDS011;63008;53.112;8.896;2022-09-02T03:45:11;1.20;;;1.20;;
5125;SDS011;63008;53.112;8.896;2022-09-02T03:47:13;1.63;;;1.10;;
5125;SDS011;63008;53.112;8.896;2022-09-02T03:49:16;1.10;;;1.10;;
5125;SDS011;63008;53.112;8.896;2022-09-02T03:51:18;1.60;;;1.50;;
5125;SDS011;63008;53.112;8.896;2022-09-02T03:53:19;1.57;;;1.23;;
5125;SDS011;63008;53.112;8.896;2022-09-02T03:55:20;3.80;;;1.80;;
5125;SDS011;63008;53.112;8.896;2022-09-02T03:57:21;1.93;;;1.80;;
5125;SDS011;63008;53.112;8.896;2022-09-02T03:59:25;4.23;;;1.40;;
5125;SDS011;63008;53.112;8.896;2022-09-02T04:01:25;3.53;;;1.60;;
5125;SDS011;63008;53.112;8.896;2022-09-02T04:03:27;1.20;;;1.20;;
5125;SDS011;63008;53.112;8.896;2022-09-02T04:05:27;1.50;;;1.07;;
5125;SDS011;63008;53.112;8.896;2022-09-02T04:07:28;1.30;;;1.30;;
5125;SDS011;63008;53.112;8.896;2022-09-02T04:09:29;1.30;;;1.23;;
5125;SDS011;63008;53.112;8.896;2022-09-02T04:11:29;1.67;;;1.40;;
5125;SDS011;63008;53.112;8.896;2022-09-02T04:13:30;1.30;;;1.30;;
5125;SDS011;63008;53.112;8.896;2022-09-02T04:15:31;1.47;;;1.20;;
5125;SDS011;63008;53.112;8.896;2022-09-02T04:17:34;1.17;;;1.17;;
5125;SDS011;63008;53.112;8.896;2022-09-02T04:19:35;1.53;;;1.43;;
5125;SDS011;63008;53.112;8.896;2022-09-02T04:21:39;1.63;;;1.50;;
5125;SDS011;63008;53.112;8.896;2022-09-02T04:23:40;2.03;;;1.40;;
5125;SDS011;63008;53.112;8.896;2022-09-02T04:25:42;1.30;;;1.20;;
5125;SDS011;63008;53.112;8.896;2022-09-02T04:27:43;3.70;;;2.47;;
5125;SDS011;63008;53.112;8.896;2022-09-02T04:29:44;2.47;;;2.23;;
5125;SDS011;63008;53.112;8.896;2022-09-02T04:31:44;2.07;;;1.97;;
5125;SDS011;63008;53.112;8.896;2022-09-02T04:33:45;1.53;;;1.43;;
5125;SDS011;63008;53.112;8.896;2022-09-02T04:35:46;2.00;;;1.90;;
5125;SDS011;63008;53.112;8.896;2022-09-02T04:37:48;6.20;;;2.00;;
5125;SDS011;63008;53.112;8.896;2022-09-02T04:39:48;3.00;;;1.97;;
5125;SDS011;63008;53.112;8.896;2022-09-02T04:41:49;5.43;;;1.67;;
5125;SDS011;63008;53.112;8.896;2022-09-02T04:43:50;2.87;;;1.83;;
5125;SDS011;63008;53.112;8.896;2022-09-02T04:45:53;1.90;;;1.80;;
5125;SDS011;63008;53.112;8.896;2022-09-02T04:47:55;1.50;;;1.40;;
5125;SDS011;63008;53.112;8.896;2022-09-02T04:49:55;2.13;;;1.80;;
5125;SDS011;63008;53.112;8.896;2022-09-02T04:51:56;2.40;;;1.63;;
5125;SDS011;63008;53.112;8.896;2022-09-02T04:53:57;2.20;;;2.10;;
5125;SDS011;63008;53.112;8.896;2022-09-02T04:55:58;5.07;;;2.20;;
5125;SDS011;63008;53.112;8.896;2022-09-02T04:57:58;2.10;;;2.00;;
5125;SDS011;63008;53.112;8.896;2022-09-02T04:59:59;1.80;;;1.70;;
5125;SDS011;63008;53.112;8.896;2022-09-02T05:02:01;1.90;;;1.80;;
5125;SDS011;63008;53.112;8.896;2022-09-02T05:04:04;2.23;;;2.00;;
5125;SDS011;63008;53.112;8.896;2022-09-02T05:06:09;2.00;;;1.70;;
5125;SDS011;63008;53.112;8.896;2022-09-02T05:08:11;2.20;;;2.10;;
5125;SDS011;63008;53.112;8.896;2022-09-02T05:10:12;1.97;;;1.87;;
5125;SDS011;63008;53.112;8.896;2022-09-02T05:12:14;2.03;;;1.83;;
5125;SDS011;63008;53.112;8.896;2022-09-02T05:14:14;2.27;;;2.17;;
5125;SDS011;63008;53.112;8.896;2022-09-02T05:16:19;5.33;;;2.00;;
5125;SDS011;63008;53.112;8.896;2022-09-02T05:18:21;1.90;;;1.80;;
5125;SDS011;63008;53.112;8.896;2022-09-02T05:20:22;2.00;;;1.90;;
5125;SDS011;63008;53.112;8.896;2022-09-02T05:22:23;2.60;;;2.40;;
5125;SDS011;63008;53.112;8.896;2022-09-02T05:24:28;3.33;;;1.97;;
5125;SDS011;63008;53.112;8.896;2022-09-02T05:26:28;2.93;;;2.40;;
5125;SDS011;63008;53.112;8.896;2022-09-02T05:28:29;3.57;;;2.27;;
5125;SDS011;63008;53.112;8.896;2022-09-02T05:30:30;2.47;;;2.30;;
5125;SDS011;63008;53.112;8.896;2022-09-02T05:32:31;2.27;;;2.17;;
5125;SDS011;63008;53.112;8.896;2022-09-02T05:34:31;12.70;;;2.47;;
5125;SDS011;63008;53.112;8.896;2022-09-02T05:36:32;2.43;;;2.20;;
5125;SDS011;63008;53.112;8.896;2022-09-02T05:38:33;3.10;;;1.60;;
5125;SDS011;63008;53.112;8.896;2022-09-02T05:40:37;1.83;;;1.73;;
5125;SDS011;63008;53.112;8.896;2022-09-02T05:42:38;2.40;;;2.20;;
5125;SDS011;63008;53.112;8.896;2022-09-02T05:44:39;2.30;;;2.20;;
5125;SDS011;63008;53.112;8.896;2022-09-02T05:46:41;3.73;;;2.00;;
5125;SDS011;63008;53.112;8.896;2022-09-02T05:48:42;2.40;;;2.20;;
5125;SDS011;63008;53.112;8.896;2022-09-02T05:51:03;3.53;;;2.40;;
5125;SDS011;63008;53.112;8.896;2022-09-02T05:53:04;2.43;;;2.30;;
5125;SDS011;63008;53.112;8.896;2022-09-02T05:55:05;3.10;;;2.00;;
5125;SDS011;63008;53.112;8.896;2022-09-02T05:57:08;2.43;;;2.33;;
5125;SDS011;63008;53.112;8.896;2022-09-02T05:59:11;2.20;;;2.03;;
5125;SDS011;63008;53.112;8.896;2022-09-02T06:01:13;8.20;;;2.13;;
5125;SDS011;63008;53.112;8.896;2022-09-02T06:03:15;2.27;;;1.77;;
5125;SDS011;63008;53.112;8.896;2022-09-02T06:05:18;2.13;;;2.03;;
5125;SDS011;63008;53.112;8.896;2022-09-02T06:07:20;3.23;;;2.17;;
5125;SDS011;63008;53.112;8.896;2022-09-02T06:09:22;3.10;;;2.20;;
5125;SDS011;63008;53.112;8.896;2022-09-02T06:11:25;2.60;;;2.00;;
5125;SDS011;63008;53.112;8.896;2022-09-02T06:13:28;2.40;;;2.20;;
5125;SDS011;63008;53.112;8.896;2022-09-02T06:15:30;4.83;;;2.47;;
5125;SDS011;63008;53.112;8.896;2022-09-02T06:17:31;4.40;;;1.87;;
5125;SDS011;63008;53.112;8.896;2022-09-02T06:19:31;2.97;;;1.97;;
5125;SDS011;63008;53.112;8.896;2022-09-02T06:21:32;2.60;;;1.90;;
5125;SDS011;63008;53.112;8.896;2022-09-02T06:23:35;2.20;;;2.00;;
5125;SDS011;63008;53.112;8.896;2022-09-02T06:25:38;7.33;;;2.20;;
5125;SDS011;63008;53.112;8.896;2022-09-02T06:27:40;1.97;;;1.87;;
5125;SDS011;63008;53.112;8.896;2022-09-02T06:29:40;3.70;;;2.10;;
5125;SDS011;63008;53.112;8.896;2022-09-02T06:31:42;2.70;;;2.50;;
5125;SDS011;63008;53.112;8.896;2022-09-02T06:33:45;4.73;;;2.10;;
5125;SDS011;63008;53.112;8.896;2022-09-02T06:35:47;4.57;;;1.43;;
5125;SDS011;63008;53.112;8.896;2022-09-02T06:37:48;2.47;;;2.23;;
5125;SDS011;63008;53.112;8.896;2022-09-02T06:39:49;4.53;;;2.80;;
5125;SDS011;63008;53.112;8.896;2022-09-02T06:41:49;5.50;;;2.00;;
5125;SDS011;63008;53.112;8.896;2022-09-02T06:43:50;6.67;;;2.07;;
5125;SDS011;63008;53.112;8.896;2022-09-02T06:45:51;2.27;;;2.10;;
5125;SDS011;63008;53.112;8.896;2022-09-02T06:47:51;3.43;;;2.17;;
5125;SDS011;63008;53.112;8.896;2022-09-02T06:49:52;3.73;;;2.40;;
5125;SDS011;63008;53.112;8.896;2022-09-02T06:51:54;12.63;;;1.97;;
5125;SDS011;63008;53.112;8.896;2022-09-02T06:53:56;2.30;;;1.87;;
5125;SDS011;63008;53.112;8.896;2022-09-02T06:55:56;2.57;;;2.13;;
5125;SDS011;63008;53.112;8.896;2022-09-02T06:57:57;2.13;;;1.97;;
5125;SDS011;63008;53.112;8.896;2022-09-02T06:59:58;1.90;;;1.80;;
5125;SDS011;63008;53.112;8.896;2022-09-02T07:01:58;2.57;;;2.03;;
5125;SDS011;63008;53.112;8.896;2022-09-02T07:03:59;1.80;;;1.70;;
5125;SDS011;63008;53.112;8.896;2022-09-02T07:06:18;4.63;;;2.27;;
5125;SDS011;63008;53.112;8.896;2022-09-02T07:08:19;3.23;;;2.20;;
5125;SDS011;63008;53.112;8.896;2022-09-02T07:10:19;12.40;;;3.10;;
5125;SDS011;63008;53.112;8.896;2022-09-02T07:12:26;3.57;;;2.30;;
5125;SDS011;63008;53.112;8.896;2022-09-02T07:14:38;4.10;;;2.00;;
5125;SDS011;63008;53.112;8.896;2022-09-02T07:16:42;2.23;;;1.67;;
5125;SDS011;63008;53.112;8.896;2022-09-02T07:18:45;2.63;;;1.90;;
5125;SDS011;63008;53.112;8.896;2022-09-02T07:20:46;2.53;;;1.70;;
5125;SDS011;63008;53.112;8.896;2022-09-02T07:22:47;4.17;;;2.20;;
5125;SDS011;63008;53.112;8.896;2022-09-02T07:24:48;6.90;;;2.17;;
5125;SDS011;63008;53.112;8.896;2022-09-02T07:26:49;4.23;;;1.90;;
5125;SDS011;63008;53.112;8.896;2022-09-02T07:28:50;2.93;;;1.70;;
5125;SDS011;63008;53.112;8.896;2022-09-02T07:30:51;1.80;;;1.60;;
5125;SDS011;63008;53.112;8.896;2022-09-02T07:32:54;2.00;;;1.90;;
5125;SDS011;63008;53.112;8.896;2022-09-02T07:35:04;2.87;;;1.50;;
5125;SDS011;63008;53.112;8.896;2022-09-02T07:37:05;3.20;;;1.60;;
5125;SDS011;63008;53.112;8.896;2022-09-02T07:39:08;3.70;;;2.07;;
5125;SDS011;63008;53.112;8.896;2022-09-02T07:41:09;4.10;;;2.37;;
5125;SDS011;63008;53.112;8.896;2022-09-02T07:43:12;3.73;;;1.37;;
5125;SDS011;63008;53.112;8.896;2022-09-02T07:45:12;2.97;;;1.57;;
5125;SDS011;63008;53.112;8.896;2022-09-02T07:47:13;2.20;;;1.53;;
5125;SDS011;63008;53.112;8.896;2022-09-02T07:49:15;2.00;;;1.90;;
5125;SDS011;63008;53.112;8.896;2022-09-02T07:51:17;2.83;;;1.73;;
5125;SDS011;63008;53.112;8.896;2022-09-02T07:53:19;1.87;;;1.77;;
5125;SDS011;63008;53.112;8.896;2022-09-02T07:55:20;2.50;;;1.67;;
5125;SDS011;63008;53.112;8.896;2022-09-02T07:57:21;2.83;;;2.03;;
5125;SDS011;63008;53.112;8.896;2022-09-02T07:59:22;1.80;;;1.67;;
5125;SDS011;63008;53.112;8.896;2022-09-02T08:01:24;2.00;;;1.70;;
5125;SDS011;63008;53.112;8.896;2022-09-02T08:03:25;3.50;;;2.37;;
5125;SDS011;63008;53.112;8.896;2022-09-02T08:05:26;1.93;;;1.77;;
5125;SDS011;63008;53.112;8.896;2022-09-02T08:07:28;8.80;;;1.80;;
5125;SDS011;63008;53.112;8.896;2022-09-02T08:09:29;3.50;;;2.00;;
5125;SDS011;63008;53.112;8.896;2022-09-02T08:11:30;4.47;;;1.97;;
5125;SDS011;63008;53.112;8.896;2022-09-02T08:13:31;3.13;;;1.70;;
5125;SDS011;63008;53.112;8.896;2022-09-02T08:15:33;3.40;;;1.97;;
5125;SDS011;63008;53.112;8.896;2022-09-02T08:17:35;5.93;;;2.20;;
5125;SDS011;63008;53.112;8.896;2022-09-02T08:19:39;3.33;;;2.07;;
5125;SDS011;63008;53.112;8.896;2022-09-02T08:21:40;7.33;;;2.07;;
5125;SDS011;63008;53.112;8.896;2022-09-02T08:23:40;6.17;;;2.20;;
5125;SDS011;63008;53.112;8.896;2022-09-02T08:25:41;6.53;;;1.60;;
5125;SDS011;63008;53.112;8.896;2022-09-02T08:27:42;2.53;;;1.77;;
5125;SDS011;63008;53.112;8.896;2022-09-02T08:29:43;2.20;;;1.77;;
5125;SDS011;63008;53.112;8.896;2022-09-02T08:31:43;2.40;;;1.63;;
5125;SDS011;63008;53.112;8.896;2022-09-02T08:33:44;2.20;;;1.67;;
5125;SDS011;63008;53.112;8.896;2022-09-02T08:35:45;1.63;;;1.53;;
5125;SDS011;63008;53.112;8.896;2022-09-02T08:37:45;11.90;;;1.73;;
5125;SDS011;63008;53.112;8.896;2022-09-02T08:39:48;4.73;;;1.90;;
5125;SDS011;63008;53.112;8.896;2022-09-02T08:42:04;4.33;;;1.50;;
5125;SDS011;63008;53.112;8.896;2022-09-02T08:44:17;4.00;;;1.90;;
5125;SDS011;63008;53.112;8.896;2022-09-02T08:46:23;7.43;;;1.63;;
5125;SDS011;63008;53.112;8.896;2022-09-02T08:50:46;2.90;;;1.57;;
5125;SDS011;63008;53.112;8.896;2022-09-02T08:54:53;3.70;;;1.37;;
5125;SDS011;63008;53.112;8.896;2022-09-02T08:56:55;3.70;;;2.20;;
5125;SDS011;63008;53.112;8.896;2022-09-02T08:58:57;3.40;;;1.33;;
5125;SDS011;63008;53.112;8.896;2022-09-02T09:01:09;2.93;;;1.60;;
5125;SDS011;63008;53.112;8.896;2022-09-02T09:03:55;2.70;;;1.30;;
5125;SDS011;63008;53.112;8.896;2022-09-02T09:06:07;4.67;;;1.83;;
5125;SDS011;63008;53.112;8.896;2022-09-02T09:10:24;1.77;;;1.27;;
5125;SDS011;63008;53.112;8.896;2022-09-02T09:16:47;2.83;;;1.23;;
5125;SDS011;63008;53.112;8.896;2022-09-02T09:19:11;4.20;;;1.27;;
5125;SDS011;63008;53.112;8.896;2022-09-02T09:21:35;8.73;;;1.47;;
5125;SDS011;63008;53.112;8.896;2022-09-02T09:23:39;1.60;;;1.50;;
5125;SDS011;63008;53.112;8.896;2022-09-02T09:25:40;2.30;;;1.00;;
5125;SDS011;63008;53.112;8.896;2022-09-02T09:27:42;1.30;;;1.20;;
5125;SDS011;63008;53.112;8.896;2022-09-02T09:29:47;1.77;;;1.37;;
5125;SDS011;63008;53.112;8.896;2022-09-02T09:31:52;4.67;;;1.23;;
5125;SDS011;63008;53.112;8.896;2022-09-02T09:34:14;4.57;;;1.47;;
5125;SDS011;63008;53.112;8.896;2022-09-02T09:36:14;2.87;;;1.20;;
5125;SDS011;63008;53.112;8.896;2022-09-02T09:38:16;1.57;;;1.47;;
5125;SDS011;63008;53.112;8.896;2022-09-02T09:40:31;2.40;;;1.20;;
5125;SDS011;63008;53.112;8.896;2022-09-02T09:42:33;4.20;;;1.47;;
5125;SDS011;63008;53.112;8.896;2022-09-02T09:46:46;8.20;;;1.40;;
5125;SDS011;63008;53.112;8.896;2022-09-02T09:49:00;3.23;;;1.30;;
5125;SDS011;63008;53.112;8.896;2022-09-02T09:55:20;2.50;;;1.10;;
5125;SDS011;63008;53.112;8.896;2022-09-02T09:57:21;2.50;;;1.30;;
5125;SDS011;63008;53.112;8.896;2022-09-02T09:59:33;1.70;;;1.27;;
5125;SDS011;63008;53.112;8.896;2022-09-02T10:01:40;4.40;;;1.23;;
5125;SDS011;63008;53.112;8.896;2022-09-02T10:03:51;6.57;;;0.90;;
5125;SDS011;63008;53.112;8.896;2022-09-02T10:05:56;3.60;;;1.00;;
5125;SDS011;63008;53.112;8.896;2022-09-02T10:07:59;3.03;;;1.13;;
5125;SDS011;63008;53.112;8.896;2022-09-02T10:10:36;6.13;;;1.20;;
5125;SDS011;63008;53.112;8.896;2022-09-02T10:12:31;0.80;;;0.80;;
5125;SDS011;63008;53.112;8.896;2022-09-02T10:14:39;3.40;;;1.37;;
5125;SDS011;63008;53.112;8.896;2022-09-02T10:36:35;1.40;;;0.80;;
5125;SDS011;63008;53.112;8.896;2022-09-02T10:38:40;5.00;;;1.23;;
5125;SDS011;63008;53.112;8.896;2022-09-02T10:40:43;2.37;;;1.20;;
5125;SDS011;63008;53.112;8.896;2022-09-02T10:42:53;2.30;;;1.10;;
5125;SDS011;63008;53.112;8.896;2022-09-02T10:45:15;1.80;;;1.37;;
5125;SDS011;63008;53.112;8.896;2022-09-02T10:47:28;3.80;;;0.97;;
5125;SDS011;63008;53.112;8.896;2022-09-02T10:51:47;4.10;;;1.67;;
5125;SDS011;63008;53.112;8.896;2022-09-02T10:56:22;1.53;;;1.40;;
5125;SDS011;63008;53.112;8.896;2022-09-02T10:58:35;4.80;;;1.27;;
5125;SDS011;63008;53.112;8.896;2022-09-02T11:00:41;1.40;;;0.90;;
5125;SDS011;63008;53.112;8.896;2022-09-02T11:03:13;4.20;;;1.23;;
5125;SDS011;63008;53.112;8.896;2022-09-02T11:05:13;1.20;;;1.10;;
5125;SDS011;63008;53.112;8.896;2022-09-02T11:07:22;7.30;;;1.20;;
5125;SDS011;63008;53.112;8.896;2022-09-02T11:09:31;1.10;;;1.10;;
5125;SDS011;63008;53.112;8.896;2022-09-02T11:11:38;9.67;;;1.30;;
5125;SDS011;63008;53.112;8.896;2022-09-02T11:13:52;2.83;;;1.17;;
5125;SDS011;63008;53.112;8.896;2022-09-02T11:16:15;1.83;;;0.90;;
5125;SDS011;63008;53.112;8.896;2022-09-02T11:20:40;7.20;;;1.20;;
5125;SDS011;63008;53.112;8.896;2022-09-02T11:25:09;1.00;;;1.00;;
5125;SDS011;63008;53.112;8.896;2022-09-02T11:27:17;3.77;;;1.63;;
5125;SDS011;63008;53.112;8.896;2022-09-02T11:29:28;2.20;;;1.33;;
5125;SDS011;63008;53.112;8.896;2022-09-02T11:31:43;4.07;;;1.77;;
5125;SDS011;63008;53.112;8.896;2022-09-02T11:35:57;4.10;;;1.50;;
5125;SDS011;63008;53.112;8.896;2022-09-02T11:38:00;4.97;;;2.50;;
5125;SDS011;63008;53.112;8.896;2022-09-02T11:40:05;4.60;;;2.10;;
5125;SDS011;63008;53.112;8.896;2022-09-02T11:46:42;3.40;;;2.80;;
5125;SDS011;63008;53.112;8.896;2022-09-02T11:52:32;2.50;;;1.87;;
5125;SDS011;63008;53.112;8.896;2022-09-02T11:54:17;3.77;;;1.73;;
5125;SDS011;63008;53.112;8.896;2022-09-02T11:56:20;2.73;;;1.53;;
5125;SDS011;63008;53.112;8.896;2022-09-02T11:58:33;1.40;;;1.30;;
5125;SDS011;63008;53.112;8.896;2022-09-02T12:02:58;3.07;;;1.00;;
5125;SDS011;63008;53.112;8.896;2022-09-02T12:07:30;2.67;;;1.20;;
5125;SDS011;63008;53.112;8.896;2022-09-02T12:09:50;4.03;;;1.23;;
5125;SDS011;63008;53.112;8.896;2022-09-02T12:11:54;1.40;;;1.10;;
5125;SDS011;63008;53.112;8.896;2022-09-02T12:13:56;1.40;;;1.20;;
5125;SDS011;63008;53.112;8.896;2022-09-02T12:18:27;1.80;;;0.90;;
5125;SDS011;63008;53.112;8.896;2022-09-02T12:22:38;3.20;;;1.20;;
5125;SDS011;63008;53.112;8.896;2022-09-02T12:28:52;1.17;;;0.87;;
5125;SDS011;63008;53.112;8.896;2022-09-02T12:33:47;0.80;;;0.80;;
5125;SDS011;63008;53.112;8.896;2022-09-02T12:35:51;2.70;;;1.03;;
5125;SDS011;63008;53.112;8.896;2022-09-02T12:40:12;1.03;;;1.03;;
5125;SDS011;63008;53.112;8.896;2022-09-02T12:42:29;5.20;;;0.73;;
5125;SDS011;63008;53.112;8.896;2022-09-02T12:46:56;1.70;;;0.90;;
5125;SDS011;63008;53.112;8.896;2022-09-02T12:51:11;6.90;;;0.90;;
5125;SDS011;63008;53.112;8.896;2022-09-02T12:53:50;9.20;;;0.90;;
5125;SDS011;63008;53.112;8.896;2022-09-02T12:58:08;2.70;;;0.83;;
5125;SDS011;63008;53.112;8.896;2022-09-02T13:05:26;2.70;;;1.00;;
5125;SDS011;63008;53.112;8.896;2022-09-02T13:07:56;1.27;;;0.80;;
5125;SDS011;63008;53.112;8.896;2022-09-02T13:13:13;3.80;;;1.23;;
5125;SDS011;63008;53.112;8.896;2022-09-02T13:20:31;4.53;;;1.20;;
5125;SDS011;63008;53.112;8.896;2022-09-02T13:34:13;3.53;;;1.00;;
5125;SDS011;63008;53.112;8.896;2022-09-02T13:36:20;2.13;;;0.80;;
5125;SDS011;63008;53.112;8.896;2022-09-02T13:38:27;5.70;;;0.80;;
5125;SDS011;63008;53.112;8.896;2022-09-02T13:40:33;0.70;;;0.60;;
5125;SDS011;63008;53.112;8.896;2022-09-02T13:42:35;2.20;;;0.80;;
5125;SDS011;63008;53.112;8.896;2022-09-02T13:44:35;3.23;;;1.00;;
5125;SDS011;63008;53.112;8.896;2022-09-02T13:46:43;2.00;;;1.03;;
5125;SDS011;63008;53.112;8.896;2022-09-02T13:48:45;3.20;;;1.10;;
5125;SDS011;63008;53.112;8.896;2022-09-02T13:50:54;6.57;;;1.40;;
5125;SDS011;63008;53.112;8.896;2022-09-02T13:53:01;4.07;;;0.80;;
5125;SDS011;63008;53.112;8.896;2022-09-02T13:55:05;6.53;;;1.07;;
5125;SDS011;63008;53.112;8.896;2022-09-02T13:57:09;0.93;;;0.70;;
5125;SDS011;63008;53.112;8.896;2022-09-02T13:59:12;4.10;;;0.80;;
5125;SDS011;63008;53.112;8.896;2022-09-02T14:03:17;2.80;;;0.80;;
5125;SDS011;63008;53.112;8.896;2022-09-02T14:05:20;4.83;;;1.00;;
5125;SDS011;63008;53.112;8.896;2022-09-02T14:07:36;6.13;;;0.90;;
5125;SDS011;63008;53.112;8.896;2022-09-02T14:09:40;1.63;;;1.00;;
5125;SDS011;63008;53.112;8.896;2022-09-02T14:11:43;4.13;;;1.20;;
5125;SDS011;63008;53.112;8.896;2022-09-02T14:13:46;1.03;;;0.87;;
5125;SDS011;63008;53.112;8.896;2022-09-02T14:15:48;3.37;;;0.80;;
5125;SDS011;63008;53.112;8.896;2022-09-02T14:22:27;1.30;;;0.93;;
5125;SDS011;63008;53.112;8.896;2022-09-02T14:24:29;0.87;;;0.87;;
5125;SDS011;63008;53.112;8.896;2022-09-02T14:26:45;4.80;;;0.90;;
5125;SDS011;63008;53.112;8.896;2022-09-02T14:28:49;7.30;;;1.20;;
5125;SDS011;63008;53.112;8.896;2022-09-02T14:31:01;4.00;;;0.90;;